sensor_id;sensor_type;location;lat;lon;timestamp;temperature;humidity
21171;DHT22;10743;52.160;20.910;2023-08-08T00:02:19;31.60;36.80
21171;DHT22;10743;52.160;20.910;2023-08-08T00:05:00;31.60;36.80
21171;DHT22;10743;52.160;20.910;2023-08-08T00:07:47;31.60;36.80
21171;DHT22;10743;52.160;20.910;2023-08-08T00:10:27;31.60;36.60
21171;DHT22;10743;52.160;20.910;2023-08-08T00:13:14;31.60;36.30
21171;DHT22;10743;52.160;20.910;2023-08-08T00:15:54;31.50;36.30
21171;DHT22;10743;52.160;20.910;2023-08-08T00:18:42;31.50;36.20
21171;DHT22;10743;52.160;20.910;2023-08-08T00:21:22;31.50;36.00
21171;DHT22;10743;52.160;20.910;2023-08-08T00:24:09;31.40;36.00
21171;DHT22;10743;52.160;20.910;2023-08-08T00:26:49;31.40;36.00
21171;DHT22;10743;52.160;20.910;2023-08-08T00:29:36;31.40;35.60
21171;DHT22;10743;52.160;20.910;2023-08-08T00:32:16;31.50;35.30
21171;DHT22;10743;52.160;20.910;2023-08-08T00:35:03;31.40;35.50
21171;DHT22;10743;52.160;20.910;2023-08-08T00:37:44;31.40;35.10
21171;DHT22;10743;52.160;20.910;2023-08-08T00:40:32;31.40;35.10
21171;DHT22;10743;52.160;20.910;2023-08-08T00:43:12;31.40;35.20
21171;DHT22;10743;52.160;20.910;2023-08-08T00:45:59;31.40;35.20
21171;DHT22;10743;52.160;20.910;2023-08-08T00:48:46;31.30;35.00
21171;DHT22;10743;52.160;20.910;2023-08-08T00:51:26;31.30;35.00
21171;DHT22;10743;52.160;20.910;2023-08-08T00:54:13;31.30;35.10
21171;DHT22;10743;52.160;20.910;2023-08-08T00:56:53;31.30;35.10
21171;DHT22;10743;52.160;20.910;2023-08-08T00:59:40;31.20;35.00
21171;DHT22;10743;52.160;20.910;2023-08-08T01:02:20;31.20;35.20
21171;DHT22;10743;52.160;20.910;2023-08-08T01:05:08;31.20;35.10
21171;DHT22;10743;52.160;20.910;2023-08-08T01:08:05;31.20;35.10
21171;DHT22;10743;52.160;20.910;2023-08-08T01:11:02;31.20;35.00
21171;DHT22;10743;52.160;20.910;2023-08-08T01:13:44;31.20;35.70
21171;DHT22;10743;52.160;20.910;2023-08-08T01:16:33;31.20;34.80
21171;DHT22;10743;52.160;20.910;2023-08-08T01:19:08;31.20;34.90
21171;DHT22;10743;52.160;20.910;2023-08-08T01:22:13;31.20;34.90
21171;DHT22;10743;52.160;20.910;2023-08-08T01:24:58;31.10;35.00
21171;DHT22;10743;52.160;20.910;2023-08-08T01:27:46;31.10;35.00
21171;DHT22;10743;52.160;20.910;2023-08-08T01:30:26;31.10;34.90
21171;DHT22;10743;52.160;20.910;2023-08-08T01:33:20;31.10;34.90
21171;DHT22;10743;52.160;20.910;2023-08-08T01:36:04;31.00;35.20
21171;DHT22;10743;52.160;20.910;2023-08-08T01:39:29;31.00;34.80
21171;DHT22;10743;52.160;20.910;2023-08-08T01:42:12;31.00;34.90
21171;DHT22;10743;52.160;20.910;2023-08-08T01:45:01;31.00;34.80
21171;DHT22;10743;52.160;20.910;2023-08-08T01:47:43;31.00;34.60
21171;DHT22;10743;52.160;20.910;2023-08-08T01:50:30;31.00;34.60
21171;DHT22;10743;52.160;20.910;2023-08-08T01:53:10;30.90;34.60
21171;DHT22;10743;52.160;20.910;2023-08-08T01:55:58;31.00;34.60
21171;DHT22;10743;52.160;20.910;2023-08-08T01:58:38;31.00;34.40
21171;DHT22;10743;52.160;20.910;2023-08-08T02:01:32;31.00;34.50
21171;DHT22;10743;52.160;20.910;2023-08-08T02:04:12;30.90;34.50
21171;DHT22;10743;52.160;20.910;2023-08-08T02:06:59;30.90;34.60
21171;DHT22;10743;52.160;20.910;2023-08-08T02:09:39;30.80;34.80
21171;DHT22;10743;52.160;20.910;2023-08-08T02:12:26;30.80;34.60
21171;DHT22;10743;52.160;20.910;2023-08-08T02:15:06;30.80;34.80
21171;DHT22;10743;52.160;20.910;2023-08-08T02:17:54;30.80;34.70
21171;DHT22;10743;52.160;20.910;2023-08-08T02:20:27;30.80;34.70
21171;DHT22;10743;52.160;20.910;2023-08-08T02:23:21;30.80;34.60
21171;DHT22;10743;52.160;20.910;2023-08-08T02:25:54;30.80;34.60
21171;DHT22;10743;52.160;20.910;2023-08-08T02:28:48;30.70;34.70
21171;DHT22;10743;52.160;20.910;2023-08-08T02:31:21;30.70;34.60
21171;DHT22;10743;52.160;20.910;2023-08-08T02:34:15;30.70;34.60
21171;DHT22;10743;52.160;20.910;2023-08-08T02:36:55;30.60;34.70
21171;DHT22;10743;52.160;20.910;2023-08-08T02:39:44;30.70;34.70
21171;DHT22;10743;52.160;20.910;2023-08-08T02:42:17;30.60;34.70
21171;DHT22;10743;52.160;20.910;2023-08-08T02:45:12;30.60;34.70
21171;DHT22;10743;52.160;20.910;2023-08-08T02:47:59;30.50;34.60
21171;DHT22;10743;52.160;20.910;2023-08-08T02:50:39;30.50;34.60
21171;DHT22;10743;52.160;20.910;2023-08-08T02:53:29;30.50;34.40
21171;DHT22;10743;52.160;20.910;2023-08-08T02:56:03;30.50;34.30
21171;DHT22;10743;52.160;20.910;2023-08-08T02:58:58;30.50;34.40
21171;DHT22;10743;52.160;20.910;2023-08-08T03:01:32;30.50;34.30
21171;DHT22;10743;52.160;20.910;2023-08-08T03:04:27;30.50;34.10
21171;DHT22;10743;52.160;20.910;2023-08-08T03:07:08;30.40;34.10
21171;DHT22;10743;52.160;20.910;2023-08-08T03:09:55;30.40;34.10
21171;DHT22;10743;52.160;20.910;2023-08-08T03:12:36;30.30;34.20
21171;DHT22;10743;52.160;20.910;2023-08-08T03:15:26;30.30;35.00
21171;DHT22;10743;52.160;20.910;2023-08-08T03:18:07;30.30;34.40
21171;DHT22;10743;52.160;20.910;2023-08-08T03:20:54;30.20;34.30
21171;DHT22;10743;52.160;20.910;2023-08-08T03:23:32;30.20;34.30
21171;DHT22;10743;52.160;20.910;2023-08-08T03:26:26;30.20;34.20
21171;DHT22;10743;52.160;20.910;2023-08-08T03:29:06;30.20;34.40
21171;DHT22;10743;52.160;20.910;2023-08-08T03:31:57;30.20;34.40
21171;DHT22;10743;52.160;20.910;2023-08-08T03:34:37;30.20;34.30
21171;DHT22;10743;52.160;20.910;2023-08-08T03:37:31;30.20;34.40
21171;DHT22;10743;52.160;20.910;2023-08-08T03:40:11;30.20;34.40
21171;DHT22;10743;52.160;20.910;2023-08-08T03:42:58;30.10;34.50
21171;DHT22;10743;52.160;20.910;2023-08-08T03:45:39;30.10;34.60
21171;DHT22;10743;52.160;20.910;2023-08-08T03:48:27;30.10;34.70
21171;DHT22;10743;52.160;20.910;2023-08-08T03:51:21;30.10;34.60
21171;DHT22;10743;52.160;20.910;2023-08-08T03:53:56;30.10;34.60
21171;DHT22;10743;52.160;20.910;2023-08-08T03:56:50;30.00;34.60
21171;DHT22;10743;52.160;20.910;2023-08-08T03:59:33;30.00;34.70
21171;DHT22;10743;52.160;20.910;2023-08-08T04:02:19;30.00;34.70
21171;DHT22;10743;52.160;20.910;2023-08-08T04:05:00;30.00;34.70
21171;DHT22;10743;52.160;20.910;2023-08-08T04:07:54;30.00;34.90
21171;DHT22;10743;52.160;20.910;2023-08-08T04:10:48;30.00;34.90
21171;DHT22;10743;52.160;20.910;2023-08-08T04:13:28;30.00;34.90
21171;DHT22;10743;52.160;20.910;2023-08-08T04:16:15;30.00;34.90
21171;DHT22;10743;52.160;20.910;2023-08-08T04:18:59;30.00;34.80
21171;DHT22;10743;52.160;20.910;2023-08-08T04:21:53;30.00;34.80
21171;DHT22;10743;52.160;20.910;2023-08-08T04:24:27;30.10;35.00
21171;DHT22;10743;52.160;20.910;2023-08-08T04:27:21;30.00;35.00
21171;DHT22;10743;52.160;20.910;2023-08-08T04:29:54;30.00;35.00
21171;DHT22;10743;52.160;20.910;2023-08-08T04:32:48;30.00;35.10
21171;DHT22;10743;52.160;20.910;2023-08-08T04:35:22;30.00;35.20
21171;DHT22;10743;52.160;20.910;2023-08-08T04:38:17;30.00;35.30
21171;DHT22;10743;52.160;20.910;2023-08-08T04:40:50;30.10;35.20
21171;DHT22;10743;52.160;20.910;2023-08-08T04:43:44;30.10;35.20
21171;DHT22;10743;52.160;20.910;2023-08-08T04:46:24;30.10;35.00
21171;DHT22;10743;52.160;20.910;2023-08-08T04:49:11;30.10;34.90
21171;DHT22;10743;52.160;20.910;2023-08-08T04:52:06;30.20;35.00
21171;DHT22;10743;52.160;20.910;2023-08-08T04:54:45;30.20;34.90
21171;DHT22;10743;52.160;20.910;2023-08-08T04:57:32;30.10;35.10
21171;DHT22;10743;52.160;20.910;2023-08-08T05:00:14;30.20;35.30
21171;DHT22;10743;52.160;20.910;2023-08-08T05:03:01;30.20;35.10
21171;DHT22;10743;52.160;20.910;2023-08-08T05:05:41;30.20;35.00
21171;DHT22;10743;52.160;20.910;2023-08-08T05:08:35;30.20;35.00
21171;DHT22;10743;52.160;20.910;2023-08-08T05:11:15;30.20;34.90
21171;DHT22;10743;52.160;20.910;2023-08-08T05:14:02;30.30;34.80
21171;DHT22;10743;52.160;20.910;2023-08-08T05:16:42;30.40;35.00
21171;DHT22;10743;52.160;20.910;2023-08-08T05:19:29;30.40;35.00
21171;DHT22;10743;52.160;20.910;2023-08-08T05:22:10;30.40;35.10
21171;DHT22;10743;52.160;20.910;2023-08-08T05:24:56;30.40;34.70
21171;DHT22;10743;52.160;20.910;2023-08-08T05:27:36;30.40;34.60
21171;DHT22;10743;52.160;20.910;2023-08-08T05:30:24;30.40;34.60
21171;DHT22;10743;52.160;20.910;2023-08-08T05:32:57;30.50;34.70
21171;DHT22;10743;52.160;20.910;2023-08-08T05:35:51;30.50;34.80
21171;DHT22;10743;52.160;20.910;2023-08-08T05:38:31;30.50;34.90
21171;DHT22;10743;52.160;20.910;2023-08-08T05:41:18;30.50;34.90
21171;DHT22;10743;52.160;20.910;2023-08-08T05:43:58;30.50;34.80
21171;DHT22;10743;52.160;20.910;2023-08-08T05:46:45;30.60;34.70
21171;DHT22;10743;52.160;20.910;2023-08-08T05:49:26;30.60;34.60
21171;DHT22;10743;52.160;20.910;2023-08-08T05:52:20;30.60;34.60
21171;DHT22;10743;52.160;20.910;2023-08-08T05:54:55;30.60;34.60
21171;DHT22;10743;52.160;20.910;2023-08-08T05:57:48;30.70;34.60
21171;DHT22;10743;52.160;20.910;2023-08-08T06:00:29;30.70;34.30
21171;DHT22;10743;52.160;20.910;2023-08-08T06:03:16;30.70;34.50
21171;DHT22;10743;52.160;20.910;2023-08-08T06:05:57;30.70;34.30
21171;DHT22;10743;52.160;20.910;2023-08-08T06:08:44;30.80;34.40
21171;DHT22;10743;52.160;20.910;2023-08-08T06:11:23;30.70;34.30
21171;DHT22;10743;52.160;20.910;2023-08-08T06:14:10;30.80;34.30
21171;DHT22;10743;52.160;20.910;2023-08-08T06:16:50;30.80;34.20
21171;DHT22;10743;52.160;20.910;2023-08-08T06:19:52;30.80;34.20
21171;DHT22;10743;52.160;20.910;2023-08-08T06:22:46;30.80;34.20
21171;DHT22;10743;52.160;20.910;2023-08-08T06:25:27;30.80;33.90
21171;DHT22;10743;52.160;20.910;2023-08-08T06:28:13;30.90;33.80
21171;DHT22;10743;52.160;20.910;2023-08-08T06:31:01;30.90;34.10
21171;DHT22;10743;52.160;20.910;2023-08-08T06:33:41;30.90;34.30
21171;DHT22;10743;52.160;20.910;2023-08-08T06:36:27;30.90;34.20
21171;DHT22;10743;52.160;20.910;2023-08-08T06:39:01;30.90;33.70
21171;DHT22;10743;52.160;20.910;2023-08-08T06:41:54;31.00;33.60
21171;DHT22;10743;52.160;20.910;2023-08-08T06:44:46;31.00;33.40
21171;DHT22;10743;52.160;20.910;2023-08-08T06:47:40;31.10;33.40
21171;DHT22;10743;52.160;20.910;2023-08-08T06:50:28;31.10;33.30
21171;DHT22;10743;52.160;20.910;2023-08-08T06:53:23;31.00;33.20
21171;DHT22;10743;52.160;20.910;2023-08-08T06:55:57;31.10;33.00
21171;DHT22;10743;52.160;20.910;2023-08-08T06:58:51;31.10;33.30
21171;DHT22;10743;52.160;20.910;2023-08-08T07:01:31;31.10;33.20
21171;DHT22;10743;52.160;20.910;2023-08-08T07:04:17;31.10;32.80
21171;DHT22;10743;52.160;20.910;2023-08-08T07:06:58;31.10;32.90
21171;DHT22;10743;52.160;20.910;2023-08-08T07:09:44;31.20;33.00
21171;DHT22;10743;52.160;20.910;2023-08-08T07:12:32;31.20;32.80
21171;DHT22;10743;52.160;20.910;2023-08-08T07:15:12;31.20;33.20
21171;DHT22;10743;52.160;20.910;2023-08-08T07:18:00;31.30;32.90
21171;DHT22;10743;52.160;20.910;2023-08-08T07:20:34;31.40;32.20
21171;DHT22;10743;52.160;20.910;2023-08-08T07:23:28;31.40;32.50
21171;DHT22;10743;52.160;20.910;2023-08-08T07:26:09;31.40;32.50
21171;DHT22;10743;52.160;20.910;2023-08-08T07:29:03;31.40;32.50
21171;DHT22;10743;52.160;20.910;2023-08-08T07:31:43;31.50;32.90
21171;DHT22;10743;52.160;20.910;2023-08-08T07:34:30;31.50;32.80
21171;DHT22;10743;52.160;20.910;2023-08-08T07:37:24;31.60;32.10
21171;DHT22;10743;52.160;20.910;2023-08-08T07:40:18;31.60;32.30
21171;DHT22;10743;52.160;20.910;2023-08-08T07:43:00;31.70;31.80
21171;DHT22;10743;52.160;20.910;2023-08-08T07:45:48;31.80;31.80
21171;DHT22;10743;52.160;20.910;2023-08-08T07:48:36;31.80;32.10
21171;DHT22;10743;52.160;20.910;2023-08-08T07:51:30;31.80;32.10
21171;DHT22;10743;52.160;20.910;2023-08-08T07:54:17;31.90;31.90
21171;DHT22;10743;52.160;20.910;2023-08-08T07:56:57;31.90;31.80
21171;DHT22;10743;52.160;20.910;2023-08-08T07:59:44;31.90;32.50
21171;DHT22;10743;52.160;20.910;2023-08-08T08:02:24;32.00;31.60
21171;DHT22;10743;52.160;20.910;2023-08-08T08:05:12;32.10;30.80
21171;DHT22;10743;52.160;20.910;2023-08-08T08:07:52;32.10;30.60
21171;DHT22;10743;52.160;20.910;2023-08-08T08:10:46;32.20;30.80
21171;DHT22;10743;52.160;20.910;2023-08-08T08:13:26;32.20;31.00
21171;DHT22;10743;52.160;20.910;2023-08-08T08:16:13;32.20;30.80
21171;DHT22;10743;52.160;20.910;2023-08-08T08:18:53;32.20;30.90
21171;DHT22;10743;52.160;20.910;2023-08-08T08:21:47;32.30;30.70
21171;DHT22;10743;52.160;20.910;2023-08-08T08:24:27;32.30;31.20
21171;DHT22;10743;52.160;20.910;2023-08-08T08:27:14;32.30;30.50
21171;DHT22;10743;52.160;20.910;2023-08-08T08:29:54;32.30;30.10
21171;DHT22;10743;52.160;20.910;2023-08-08T08:32:41;32.40;30.50
21171;DHT22;10743;52.160;20.910;2023-08-08T08:35:15;32.40;30.50
21171;DHT22;10743;52.160;20.910;2023-08-08T08:38:09;32.40;30.50
21171;DHT22;10743;52.160;20.910;2023-08-08T08:40:43;32.40;30.60
21171;DHT22;10743;52.160;20.910;2023-08-08T08:43:39;32.40;31.00
21171;DHT22;10743;52.160;20.910;2023-08-08T08:46:21;32.40;30.40
21171;DHT22;10743;52.160;20.910;2023-08-08T08:49:09;32.40;30.60
21171;DHT22;10743;52.160;20.910;2023-08-08T08:51:50;32.50;30.60
21171;DHT22;10743;52.160;20.910;2023-08-08T08:54:38;32.60;30.20
21171;DHT22;10743;52.160;20.910;2023-08-08T08:57:18;32.60;29.90
21171;DHT22;10743;52.160;20.910;2023-08-08T09:00:08;32.60;29.70
21171;DHT22;10743;52.160;20.910;2023-08-08T09:02:52;32.70;29.80
21171;DHT22;10743;52.160;20.910;2023-08-08T09:05:42;32.70;29.50
21171;DHT22;10743;52.160;20.910;2023-08-08T09:08:23;32.70;29.80
21171;DHT22;10743;52.160;20.910;2023-08-08T09:11:10;32.70;29.40
21171;DHT22;10743;52.160;20.910;2023-08-08T09:13:51;32.80;29.60
21171;DHT22;10743;52.160;20.910;2023-08-08T09:16:38;32.70;29.80
21171;DHT22;10743;52.160;20.910;2023-08-08T09:19:20;32.80;29.60
21171;DHT22;10743;52.160;20.910;2023-08-08T09:22:08;32.70;29.30
21171;DHT22;10743;52.160;20.910;2023-08-08T09:24:48;32.80;29.60
21171;DHT22;10743;52.160;20.910;2023-08-08T09:27:35;32.80;29.70
21171;DHT22;10743;52.160;20.910;2023-08-08T09:30:16;32.80;29.30
21171;DHT22;10743;52.160;20.910;2023-08-08T09:33:04;32.80;29.40
21171;DHT22;10743;52.160;20.910;2023-08-08T09:35:46;32.90;29.70
21171;DHT22;10743;52.160;20.910;2023-08-08T09:38:35;33.00;29.20
21171;DHT22;10743;52.160;20.910;2023-08-08T09:41:15;33.00;28.60
21171;DHT22;10743;52.160;20.910;2023-08-08T09:44:09;33.10;28.90
21171;DHT22;10743;52.160;20.910;2023-08-08T09:46:50;33.20;28.80
21171;DHT22;10743;52.160;20.910;2023-08-08T09:49:37;33.30;29.10
21171;DHT22;10743;52.160;20.910;2023-08-08T09:52:33;33.40;29.00
21171;DHT22;10743;52.160;20.910;2023-08-08T09:55:14;33.50;28.90
21171;DHT22;10743;52.160;20.910;2023-08-08T09:58:02;33.50;29.30
21171;DHT22;10743;52.160;20.910;2023-08-08T10:00:43;33.60;28.50
21171;DHT22;10743;52.160;20.910;2023-08-08T10:03:31;33.80;28.60
21171;DHT22;10743;52.160;20.910;2023-08-08T10:06:13;33.90;28.80
21171;DHT22;10743;52.160;20.910;2023-08-08T10:09:08;34.00;28.80
21171;DHT22;10743;52.160;20.910;2023-08-08T10:11:48;34.00;27.50
21171;DHT22;10743;52.160;20.910;2023-08-08T10:14:36;34.10;27.40
21171;DHT22;10743;52.160;20.910;2023-08-08T10:17:18;34.20;27.50
21171;DHT22;10743;52.160;20.910;2023-08-08T10:20:12;34.20;27.40
21171;DHT22;10743;52.160;20.910;2023-08-08T10:22:46;34.20;28.00
21171;DHT22;10743;52.160;20.910;2023-08-08T10:25:51;34.20;27.90
21171;DHT22;10743;52.160;20.910;2023-08-08T10:28:33;34.20;27.80
21171;DHT22;10743;52.160;20.910;2023-08-08T10:31:21;34.30;27.50
21171;DHT22;10743;52.160;20.910;2023-08-08T10:34:05;34.40;27.20
21171;DHT22;10743;52.160;20.910;2023-08-08T10:36:54;34.50;26.70
21171;DHT22;10743;52.160;20.910;2023-08-08T10:39:37;34.50;26.50
21171;DHT22;10743;52.160;20.910;2023-08-08T10:42:27;34.60;25.80
21171;DHT22;10743;52.160;20.910;2023-08-08T10:45:10;34.60;26.30
21171;DHT22;10743;52.160;20.910;2023-08-08T10:48:08;34.60;26.10
21171;DHT22;10743;52.160;20.910;2023-08-08T10:50:57;34.60;25.30
21171;DHT22;10743;52.160;20.910;2023-08-08T10:53:52;34.50;25.80
21171;DHT22;10743;52.160;20.910;2023-08-08T10:56:26;34.40;26.10
21171;DHT22;10743;52.160;20.910;2023-08-08T10:59:22;34.40;26.30
21171;DHT22;10743;52.160;20.910;2023-08-08T11:02:07;34.40;26.40
21171;DHT22;10743;52.160;20.910;2023-08-08T11:04:55;34.40;26.40
21171;DHT22;10743;52.160;20.910;2023-08-08T11:07:29;34.30;25.60
21171;DHT22;10743;52.160;20.910;2023-08-08T11:10:24;34.30;25.80
21171;DHT22;10743;52.160;20.910;2023-08-08T11:13:10;34.30;26.10
21171;DHT22;10743;52.160;20.910;2023-08-08T11:15:57;34.30;26.30
21171;DHT22;10743;52.160;20.910;2023-08-08T11:18:37;34.30;26.30
21171;DHT22;10743;52.160;20.910;2023-08-08T11:21:24;34.40;26.00
21171;DHT22;10743;52.160;20.910;2023-08-08T11:24:05;34.40;26.10
21171;DHT22;10743;52.160;20.910;2023-08-08T11:26:59;34.50;26.70
21171;DHT22;10743;52.160;20.910;2023-08-08T11:29:39;34.60;26.40
21171;DHT22;10743;52.160;20.910;2023-08-08T11:32:27;34.70;25.20
21171;DHT22;10743;52.160;20.910;2023-08-08T11:35:08;34.80;25.50
21171;DHT22;10743;52.160;20.910;2023-08-08T11:37:57;34.90;26.00
21171;DHT22;10743;52.160;20.910;2023-08-08T11:40:38;34.90;25.60
21171;DHT22;10743;52.160;20.910;2023-08-08T11:43:33;34.90;25.40
21171;DHT22;10743;52.160;20.910;2023-08-08T11:46:14;34.90;25.00
21171;DHT22;10743;52.160;20.910;2023-08-08T11:49:05;34.90;25.20
21171;DHT22;10743;52.160;20.910;2023-08-08T11:52:00;34.90;25.10
21171;DHT22;10743;52.160;20.910;2023-08-08T11:54:41;35.00;25.20
21171;DHT22;10743;52.160;20.910;2023-08-08T11:57:28;34.90;25.10
21171;DHT22;10743;52.160;20.910;2023-08-08T12:00:10;35.00;25.10
21171;DHT22;10743;52.160;20.910;2023-08-08T12:03:00;35.00;25.30
21171;DHT22;10743;52.160;20.910;2023-08-08T12:05:48;35.10;25.20
21171;DHT22;10743;52.160;20.910;2023-08-08T12:08:35;35.10;24.80
21171;DHT22;10743;52.160;20.910;2023-08-08T12:11:17;35.20;24.80
21171;DHT22;10743;52.160;20.910;2023-08-08T12:14:08;35.20;24.50
21171;DHT22;10743;52.160;20.910;2023-08-08T12:16:54;35.30;24.60
21171;DHT22;10743;52.160;20.910;2023-08-08T12:19:46;35.40;24.20
21171;DHT22;10743;52.160;20.910;2023-08-08T12:22:27;35.40;24.20
21171;DHT22;10743;52.160;20.910;2023-08-08T12:25:14;35.40;24.30
21171;DHT22;10743;52.160;20.910;2023-08-08T12:27:54;35.40;23.80
21171;DHT22;10743;52.160;20.910;2023-08-08T12:30:42;35.40;24.10
21171;DHT22;10743;52.160;20.910;2023-08-08T12:33:22;35.40;24.20
21171;DHT22;10743;52.160;20.910;2023-08-08T12:36:09;35.30;24.60
21171;DHT22;10743;52.160;20.910;2023-08-08T12:38:49;35.20;24.80
21171;DHT22;10743;52.160;20.910;2023-08-08T12:41:36;35.20;24.60
21171;DHT22;10743;52.160;20.910;2023-08-08T12:44:16;35.10;24.90
21171;DHT22;10743;52.160;20.910;2023-08-08T12:47:10;35.10;24.70
21171;DHT22;10743;52.160;20.910;2023-08-08T12:49:50;35.20;24.70
21171;DHT22;10743;52.160;20.910;2023-08-08T12:52:37;35.20;24.50
21171;DHT22;10743;52.160;20.910;2023-08-08T12:55:18;35.10;24.70
21171;DHT22;10743;52.160;20.910;2023-08-08T12:58:05;35.10;24.70
21171;DHT22;10743;52.160;20.910;2023-08-08T13:00:45;35.20;24.30
21171;DHT22;10743;52.160;20.910;2023-08-08T13:03:32;35.20;24.20
21171;DHT22;10743;52.160;20.910;2023-08-08T13:06:19;35.20;24.60
21171;DHT22;10743;52.160;20.910;2023-08-08T13:09:06;35.20;24.20
21171;DHT22;10743;52.160;20.910;2023-08-08T13:11:46;35.20;24.00
21171;DHT22;10743;52.160;20.910;2023-08-08T13:14:33;35.20;23.80
21171;DHT22;10743;52.160;20.910;2023-08-08T13:17:13;35.20;24.10
21171;DHT22;10743;52.160;20.910;2023-08-08T13:20:08;35.10;24.10
21171;DHT22;10743;52.160;20.910;2023-08-08T13:22:42;35.10;24.20
21171;DHT22;10743;52.160;20.910;2023-08-08T13:25:36;35.00;24.30
21171;DHT22;10743;52.160;20.910;2023-08-08T13:28:16;35.00;24.40
21171;DHT22;10743;52.160;20.910;2023-08-08T13:31:03;34.90;24.50
21171;DHT22;10743;52.160;20.910;2023-08-08T13:33:36;34.80;24.50
21171;DHT22;10743;52.160;20.910;2023-08-08T13:36:30;34.80;24.70
21171;DHT22;10743;52.160;20.910;2023-08-08T13:39:10;34.70;24.70
21171;DHT22;10743;52.160;20.910;2023-08-08T13:41:57;34.60;25.20
21171;DHT22;10743;52.160;20.910;2023-08-08T13:44:37;34.50;25.60
21171;DHT22;10743;52.160;20.910;2023-08-08T13:47:24;34.50;26.70
21171;DHT22;10743;52.160;20.910;2023-08-08T13:50:12;34.50;27.80
21171;DHT22;10743;52.160;20.910;2023-08-08T13:53:07;34.40;27.90
21171;DHT22;10743;52.160;20.910;2023-08-08T13:55:47;34.20;28.90
21171;DHT22;10743;52.160;20.910;2023-08-08T13:58:34;34.10;29.30
21171;DHT22;10743;52.160;20.910;2023-08-08T14:01:14;34.00;29.30
21171;DHT22;10743;52.160;20.910;2023-08-08T14:04:08;34.00;29.80
21171;DHT22;10743;52.160;20.910;2023-08-08T14:06:48;33.90;30.00
21171;DHT22;10743;52.160;20.910;2023-08-08T14:09:35;33.80;30.00
21171;DHT22;10743;52.160;20.910;2023-08-08T14:12:15;33.80;29.70
21171;DHT22;10743;52.160;20.910;2023-08-08T14:15:04;33.80;29.00
21171;DHT22;10743;52.160;20.910;2023-08-08T14:17:44;33.80;28.80
21171;DHT22;10743;52.160;20.910;2023-08-08T14:20:32;33.80;28.80
21171;DHT22;10743;52.160;20.910;2023-08-08T14:23:12;33.80;28.60
21171;DHT22;10743;52.160;20.910;2023-08-08T14:25:59;33.80;28.80
21171;DHT22;10743;52.160;20.910;2023-08-08T14:28:39;33.80;28.50
21171;DHT22;10743;52.160;20.910;2023-08-08T14:31:26;33.80;28.40
21171;DHT22;10743;52.160;20.910;2023-08-08T14:33:59;33.80;28.60
21171;DHT22;10743;52.160;20.910;2023-08-08T14:36:53;33.80;28.80
21171;DHT22;10743;52.160;20.910;2023-08-08T14:39:33;33.80;28.80
21171;DHT22;10743;52.160;20.910;2023-08-08T14:42:20;33.90;28.30
21171;DHT22;10743;52.160;20.910;2023-08-08T14:45:00;33.90;28.50
21171;DHT22;10743;52.160;20.910;2023-08-08T14:47:47;34.00;29.00
21171;DHT22;10743;52.160;20.910;2023-08-08T14:50:34;34.10;28.10
21171;DHT22;10743;52.160;20.910;2023-08-08T14:53:28;34.20;28.20
21171;DHT22;10743;52.160;20.910;2023-08-08T14:56:08;34.20;27.70
21171;DHT22;10743;52.160;20.910;2023-08-08T14:58:55;34.30;27.10
21171;DHT22;10743;52.160;20.910;2023-08-08T15:01:36;34.40;26.90
21171;DHT22;10743;52.160;20.910;2023-08-08T15:04:23;34.30;27.20
21171;DHT22;10743;52.160;20.910;2023-08-08T15:07:03;34.40;27.40
21171;DHT22;10743;52.160;20.910;2023-08-08T15:09:50;34.40;26.90
21171;DHT22;10743;52.160;20.910;2023-08-08T15:12:31;34.50;26.70
21171;DHT22;10743;52.160;20.910;2023-08-08T15:15:26;34.50;27.00
21171;DHT22;10743;52.160;20.910;2023-08-08T15:18:07;34.60;27.00
21171;DHT22;10743;52.160;20.910;2023-08-08T15:21:01;34.60;26.50
21171;DHT22;10743;52.160;20.910;2023-08-08T15:23:34;34.60;26.30
21171;DHT22;10743;52.160;20.910;2023-08-08T15:26:30;34.70;26.40
21171;DHT22;10743;52.160;20.910;2023-08-08T15:29:10;34.80;26.00
21171;DHT22;10743;52.160;20.910;2023-08-08T15:31:57;34.80;25.40
21171;DHT22;10743;52.160;20.910;2023-08-08T15:34:37;34.80;25.40
21171;DHT22;10743;52.160;20.910;2023-08-08T15:37:24;34.70;25.70
21171;DHT22;10743;52.160;20.910;2023-08-08T15:40:05;34.70;25.50
21171;DHT22;10743;52.160;20.910;2023-08-08T15:42:53;34.70;25.70
21171;DHT22;10743;52.160;20.910;2023-08-08T15:45:33;34.60;25.80
21171;DHT22;10743;52.160;20.910;2023-08-08T15:48:20;34.60;26.20
21171;DHT22;10743;52.160;20.910;2023-08-08T15:51:07;34.50;26.10
21171;DHT22;10743;52.160;20.910;2023-08-08T15:54:01;34.50;26.10
21171;DHT22;10743;52.160;20.910;2023-08-08T15:56:43;34.50;26.10
21171;DHT22;10743;52.160;20.910;2023-08-08T15:59:30;34.50;26.30
21171;DHT22;10743;52.160;20.910;2023-08-08T16:02:10;34.50;26.70
21171;DHT22;10743;52.160;20.910;2023-08-08T16:04:58;34.50;26.30
21171;DHT22;10743;52.160;20.910;2023-08-08T16:07:39;34.50;26.20
21171;DHT22;10743;52.160;20.910;2023-08-08T16:10:26;34.50;26.40
21171;DHT22;10743;52.160;20.910;2023-08-08T16:13:06;34.50;26.10
21171;DHT22;10743;52.160;20.910;2023-08-08T16:15:53;34.60;25.70
21171;DHT22;10743;52.160;20.910;2023-08-08T16:18:33;34.60;26.00
21171;DHT22;10743;52.160;20.910;2023-08-08T16:21:20;34.60;25.80
21171;DHT22;10743;52.160;20.910;2023-08-08T16:24:00;34.50;26.30
21171;DHT22;10743;52.160;20.910;2023-08-08T16:26:47;34.50;25.90
21171;DHT22;10743;52.160;20.910;2023-08-08T16:29:28;34.50;26.10
21171;DHT22;10743;52.160;20.910;2023-08-08T16:32:15;34.50;26.10
21171;DHT22;10743;52.160;20.910;2023-08-08T16:34:56;34.50;26.10
21171;DHT22;10743;52.160;20.910;2023-08-08T16:37:49;34.50;26.00
21171;DHT22;10743;52.160;20.910;2023-08-08T16:40:22;34.50;26.10
21171;DHT22;10743;52.160;20.910;2023-08-08T16:43:16;34.50;26.10
21171;DHT22;10743;52.160;20.910;2023-08-08T16:45:50;34.50;26.20
21171;DHT22;10743;52.160;20.910;2023-08-08T16:48:44;34.50;26.60
21171;DHT22;10743;52.160;20.910;2023-08-08T16:51:34;34.50;26.50
21171;DHT22;10743;52.160;20.910;2023-08-08T16:54:29;34.40;26.50
21171;DHT22;10743;52.160;20.910;2023-08-08T16:57:10;34.40;26.90
21171;DHT22;10743;52.160;20.910;2023-08-08T16:59:56;34.30;26.80
21171;DHT22;10743;52.160;20.910;2023-08-08T17:02:37;34.30;27.00
21171;DHT22;10743;52.160;20.910;2023-08-08T17:05:30;34.20;26.80
21171;DHT22;10743;52.160;20.910;2023-08-08T17:08:11;34.20;26.80